sensor_id;sensor_type;location;lat;lon;timestamp;temperature;humidity
70068;DHT22;57425;51.616;6.680;2023-04-25T00:00:36;10.90;72.80
70068;DHT22;57425;51.616;6.680;2023-04-25T00:03:01;11.10;73.00
70068;DHT22;57425;51.616;6.680;2023-04-25T00:05:27;10.90;73.10
70068;DHT22;57425;51.616;6.680;2023-04-25T00:07:53;10.80;73.10
70068;DHT22;57425;51.616;6.680;2023-04-25T00:10:20;10.80;73.20
70068;DHT22;57425;51.616;6.680;2023-04-25T00:12:45;10.80;73.20
70068;DHT22;57425;51.616;6.680;2023-04-25T00:20:04;10.90;94.50
70068;DHT22;57425;51.616;6.680;2023-04-25T00:22:31;11.00;95.40
70068;DHT22;57425;51.616;6.680;2023-04-25T00:24:57;10.80;73.20
70068;DHT22;57425;51.616;6.680;2023-04-25T00:27:26;10.90;73.30
70068;DHT22;57425;51.616;6.680;2023-04-25T00:29:51;10.70;73.30
70068;DHT22;57425;51.616;6.680;2023-04-25T00:32:17;10.80;73.40
70068;DHT22;57425;51.616;6.680;2023-04-25T00:34:43;10.70;73.40
70068;DHT22;57425;51.616;6.680;2023-04-25T00:37:08;10.70;73.40
70068;DHT22;57425;51.616;6.680;2023-04-25T00:39:34;10.70;73.40
70068;DHT22;57425;51.616;6.680;2023-04-25T00:42:00;10.70;73.50
70068;DHT22;57425;51.616;6.680;2023-04-25T00:44:27;10.70;73.50
70068;DHT22;57425;51.616;6.680;2023-04-25T00:46:55;10.70;73.50
70068;DHT22;57425;51.616;6.680;2023-04-25T00:49:21;10.70;73.60
70068;DHT22;57425;51.616;6.680;2023-04-25T00:51:48;10.70;74.10
70068;DHT22;57425;51.616;6.680;2023-04-25T00:54:14;10.70;73.60
70068;DHT22;57425;51.616;6.680;2023-04-25T00:56:41;10.70;73.60
70068;DHT22;57425;51.616;6.680;2023-04-25T00:59:09;10.60;73.50
70068;DHT22;57425;51.616;6.680;2023-04-25T01:01:35;10.60;73.50
70068;DHT22;57425;51.616;6.680;2023-04-25T01:04:01;10.60;73.50
70068;DHT22;57425;51.616;6.680;2023-04-25T01:06:27;10.60;73.50
70068;DHT22;57425;51.616;6.680;2023-04-25T01:08:53;10.60;73.60
70068;DHT22;57425;51.616;6.680;2023-04-25T01:11:19;10.60;73.50
70068;DHT22;57425;51.616;6.680;2023-04-25T01:13:45;10.60;73.60
70068;DHT22;57425;51.616;6.680;2023-04-25T01:16:10;10.60;73.60
70068;DHT22;57425;51.616;6.680;2023-04-25T01:18:38;10.60;73.70
70068;DHT22;57425;51.616;6.680;2023-04-25T01:21:10;10.60;73.70
70068;DHT22;57425;51.616;6.680;2023-04-25T01:23:37;10.50;73.60
70068;DHT22;57425;51.616;6.680;2023-04-25T01:26:06;10.60;73.70
70068;DHT22;57425;51.616;6.680;2023-04-25T01:28:33;10.50;73.70
70068;DHT22;57425;51.616;6.680;2023-04-25T01:31:00;10.60;73.80
70068;DHT22;57425;51.616;6.680;2023-04-25T01:33:26;10.50;73.80
70068;DHT22;57425;51.616;6.680;2023-04-25T01:35:52;10.60;73.90
70068;DHT22;57425;51.616;6.680;2023-04-25T01:38:18;10.60;74.50
70068;DHT22;57425;51.616;6.680;2023-04-25T01:40:45;10.50;73.90
70068;DHT22;57425;51.616;6.680;2023-04-25T01:43:13;10.50;73.90
70068;DHT22;57425;51.616;6.680;2023-04-25T01:45:40;10.50;74.00
70068;DHT22;57425;51.616;6.680;2023-04-25T01:48:08;10.60;74.10
70068;DHT22;57425;51.616;6.680;2023-04-25T01:50:33;10.40;74.00
70068;DHT22;57425;51.616;6.680;2023-04-25T01:52:59;10.50;74.10
70068;DHT22;57425;51.616;6.680;2023-04-25T01:55:27;10.50;74.10
70068;DHT22;57425;51.616;6.680;2023-04-25T01:57:52;10.50;74.10
70068;DHT22;57425;51.616;6.680;2023-04-25T02:00:18;10.50;74.20
70068;DHT22;57425;51.616;6.680;2023-04-25T02:02:44;10.40;74.20
70068;DHT22;57425;51.616;6.680;2023-04-25T02:05:10;10.50;74.30
70068;DHT22;57425;51.616;6.680;2023-04-25T02:07:36;10.40;74.30
70068;DHT22;57425;51.616;6.680;2023-04-25T02:10:03;10.40;74.90
70068;DHT22;57425;51.616;6.680;2023-04-25T02:12:29;10.40;74.30
70068;DHT22;57425;51.616;6.680;2023-04-25T02:14:55;10.40;74.30
70068;DHT22;57425;51.616;6.680;2023-04-25T02:17:20;10.40;74.30
70068;DHT22;57425;51.616;6.680;2023-04-25T02:19:47;10.40;74.40
70068;DHT22;57425;51.616;6.680;2023-04-25T02:22:13;10.40;74.40
70068;DHT22;57425;51.616;6.680;2023-04-25T02:24:39;10.40;74.50
70068;DHT22;57425;51.616;6.680;2023-04-25T02:27:05;10.40;74.60
70068;DHT22;57425;51.616;6.680;2023-04-25T02:29:31;10.40;74.60
70068;DHT22;57425;51.616;6.680;2023-04-25T02:31:57;10.30;74.60
70068;DHT22;57425;51.616;6.680;2023-04-25T02:34:22;10.30;74.60
70068;DHT22;57425;51.616;6.680;2023-04-25T02:36:48;10.50;74.80
70068;DHT22;57425;51.616;6.680;2023-04-25T02:39:16;10.30;74.70
70068;DHT22;57425;51.616;6.680;2023-04-25T02:41:42;10.50;74.80
70068;DHT22;57425;51.616;6.680;2023-04-25T02:44:07;10.50;74.80
70068;DHT22;57425;51.616;6.680;2023-04-25T02:46:34;10.30;74.70
70068;DHT22;57425;51.616;6.680;2023-04-25T02:48:59;10.50;74.80
70068;DHT22;57425;51.616;6.680;2023-04-25T02:51:25;10.30;74.70
70068;DHT22;57425;51.616;6.680;2023-04-25T02:53:51;10.30;74.70
70068;DHT22;57425;51.616;6.680;2023-04-25T02:56:17;10.30;74.80
70068;DHT22;57425;51.616;6.680;2023-04-25T02:58:43;10.30;74.80
70068;DHT22;57425;51.616;6.680;2023-04-25T03:01:09;10.30;74.80
70068;DHT22;57425;51.616;6.680;2023-04-25T03:03:35;10.30;74.80
70068;DHT22;57425;51.616;6.680;2023-04-25T03:06:00;10.30;74.80
70068;DHT22;57425;51.616;6.680;2023-04-25T03:08:26;10.30;74.90
70068;DHT22;57425;51.616;6.680;2023-04-25T03:10:56;10.30;75.50
70068;DHT22;57425;51.616;6.680;2023-04-25T03:13:22;10.30;74.90
70068;DHT22;57425;51.616;6.680;2023-04-25T03:15:48;10.30;75.00
70068;DHT22;57425;51.616;6.680;2023-04-25T03:18:13;10.20;74.90
70068;DHT22;57425;51.616;6.680;2023-04-25T03:20:39;10.20;74.90
70068;DHT22;57425;51.616;6.680;2023-04-25T03:23:07;10.20;75.00
70068;DHT22;57425;51.616;6.680;2023-04-25T03:25:32;10.20;75.00
70068;DHT22;57425;51.616;6.680;2023-04-25T03:27:58;10.40;75.10
70068;DHT22;57425;51.616;6.680;2023-04-25T03:30:23;10.20;75.00
70068;DHT22;57425;51.616;6.680;2023-04-25T03:32:49;10.20;75.00
70068;DHT22;57425;51.616;6.680;2023-04-25T03:35:15;10.20;75.10
70068;DHT22;57425;51.616;6.680;2023-04-25T03:37:40;10.20;75.10
70068;DHT22;57425;51.616;6.680;2023-04-25T03:40:06;10.20;75.10
70068;DHT22;57425;51.616;6.680;2023-04-25T03:42:32;10.20;75.10
70068;DHT22;57425;51.616;6.680;2023-04-25T03:44:59;10.20;75.10
70068;DHT22;57425;51.616;6.680;2023-04-25T03:47:25;10.20;75.10
70068;DHT22;57425;51.616;6.680;2023-04-25T03:49:50;10.20;75.10
70068;DHT22;57425;51.616;6.680;2023-04-25T03:52:17;10.10;75.00
70068;DHT22;57425;51.616;6.680;2023-04-25T03:54:43;10.10;75.00
70068;DHT22;57425;51.616;6.680;2023-04-25T03:57:08;10.10;75.10
70068;DHT22;57425;51.616;6.680;2023-04-25T03:59:34;10.30;75.10
70068;DHT22;57425;51.616;6.680;2023-04-25T04:01:59;10.10;75.00
70068;DHT22;57425;51.616;6.680;2023-04-25T04:04:25;10.10;74.90
70068;DHT22;57425;51.616;6.680;2023-04-25T04:06:52;10.20;75.00
70068;DHT22;57425;51.616;6.680;2023-04-25T04:09:18;10.10;74.90
70068;DHT22;57425;51.616;6.680;2023-04-25T04:11:44;10.00;74.90
70068;DHT22;57425;51.616;6.680;2023-04-25T04:14:10;10.10;75.00
70068;DHT22;57425;51.616;6.680;2023-04-25T04:16:36;10.00;75.00
70068;DHT22;57425;51.616;6.680;2023-04-25T04:19:02;10.00;75.00
70068;DHT22;57425;51.616;6.680;2023-04-25T04:21:28;10.00;74.90
70068;DHT22;57425;51.616;6.680;2023-04-25T04:23:57;10.00;74.90
70068;DHT22;57425;51.616;6.680;2023-04-25T04:26:25;10.10;75.50
70068;DHT22;57425;51.616;6.680;2023-04-25T04:28:51;10.00;74.90
70068;DHT22;57425;51.616;6.680;2023-04-25T04:31:17;10.00;74.90
70068;DHT22;57425;51.616;6.680;2023-04-25T04:33:45;10.00;74.90
70068;DHT22;57425;51.616;6.680;2023-04-25T05:00:34;10.10;99.20
70068;DHT22;57425;51.616;6.680;2023-04-25T05:02:59;10.00;74.60
70068;DHT22;57425;51.616;6.680;2023-04-25T05:05:25;9.90;74.70
70068;DHT22;57425;51.616;6.680;2023-04-25T05:07:51;9.90;74.70
70068;DHT22;57425;51.616;6.680;2023-04-25T05:10:18;10.00;74.80
70068;DHT22;57425;51.616;6.680;2023-04-25T05:12:44;9.80;74.80
70068;DHT22;57425;51.616;6.680;2023-04-25T05:15:10;9.90;74.90
70068;DHT22;57425;51.616;6.680;2023-04-25T05:17:36;9.90;74.90
70068;DHT22;57425;51.616;6.680;2023-04-25T05:20:02;9.90;74.90
70068;DHT22;57425;51.616;6.680;2023-04-25T05:22:28;9.80;74.90
70068;DHT22;57425;51.616;6.680;2023-04-25T05:24:53;9.80;74.90
70068;DHT22;57425;51.616;6.680;2023-04-25T05:27:19;9.80;74.90
70068;DHT22;57425;51.616;6.680;2023-04-25T05:29:45;9.80;74.80
70068;DHT22;57425;51.616;6.680;2023-04-25T05:34:38;9.90;92.90
70068;DHT22;57425;51.616;6.680;2023-04-25T05:54:06;9.90;73.60
70068;DHT22;57425;51.616;6.680;2023-04-25T05:56:31;9.90;74.40
70068;DHT22;57425;51.616;6.680;2023-04-25T05:58:57;9.80;74.40
70068;DHT22;57425;51.616;6.680;2023-04-25T06:01:22;9.80;74.50
70068;DHT22;57425;51.616;6.680;2023-04-25T06:03:48;9.80;74.40
70068;DHT22;57425;51.616;6.680;2023-04-25T06:06:14;9.90;74.40
70068;DHT22;57425;51.616;6.680;2023-04-25T06:08:40;9.80;74.40
70068;DHT22;57425;51.616;6.680;2023-04-25T06:15:58;9.80;73.50
70068;DHT22;57425;51.616;6.680;2023-04-25T06:18:24;9.80;74.30
70068;DHT22;57425;51.616;6.680;2023-04-25T06:20:50;9.80;74.40
70068;DHT22;57425;51.616;6.680;2023-04-25T06:23:15;9.90;74.50
70068;DHT22;57425;51.616;6.680;2023-04-25T06:25:41;9.70;74.50
70068;DHT22;57425;51.616;6.680;2023-04-25T06:28:06;9.80;74.60
70068;DHT22;57425;51.616;6.680;2023-04-25T06:37:50;9.90;92.40
70068;DHT22;57425;51.616;6.680;2023-04-25T06:40:16;9.80;95.10
70068;DHT22;57425;51.616;6.680;2023-04-25T06:59:45;9.90;95.70
70068;DHT22;57425;51.616;6.680;2023-04-25T07:02:10;9.80;74.00
70068;DHT22;57425;51.616;6.680;2023-04-25T07:04:36;9.80;74.20
70068;DHT22;57425;51.616;6.680;2023-04-25T07:07:02;9.80;74.20
70068;DHT22;57425;51.616;6.680;2023-04-25T07:09:28;9.80;74.30
70068;DHT22;57425;51.616;6.680;2023-04-25T07:11:54;9.80;74.20
70068;DHT22;57425;51.616;6.680;2023-04-25T07:14:20;9.80;74.20
70068;DHT22;57425;51.616;6.680;2023-04-25T07:16:45;9.70;74.20
70068;DHT22;57425;51.616;6.680;2023-04-25T07:19:12;9.70;74.00
70068;DHT22;57425;51.616;6.680;2023-04-25T07:24:04;9.80;73.10
70068;DHT22;57425;51.616;6.680;2023-04-25T07:26:29;9.80;73.60
70068;DHT22;57425;51.616;6.680;2023-04-25T07:28:56;10.00;73.80
70068;DHT22;57425;51.616;6.680;2023-04-25T07:31:22;9.80;73.60
70068;DHT22;57425;51.616;6.680;2023-04-25T07:33:48;9.80;73.60
70068;DHT22;57425;51.616;6.680;2023-04-25T07:36:13;9.80;73.60
70068;DHT22;57425;51.616;6.680;2023-04-25T07:38:40;10.00;73.60
70068;DHT22;57425;51.616;6.680;2023-04-25T07:41:06;9.80;73.50
70068;DHT22;57425;51.616;6.680;2023-04-25T07:43:32;9.80;73.50
70068;DHT22;57425;51.616;6.680;2023-04-25T07:45:58;9.90;73.50
70068;DHT22;57425;51.616;6.680;2023-04-25T07:48:23;9.80;73.40
70068;DHT22;57425;51.616;6.680;2023-04-25T07:50:49;9.80;73.40
70068;DHT22;57425;51.616;6.680;2023-04-25T07:53:16;9.80;73.40
70068;DHT22;57425;51.616;6.680;2023-04-25T07:55:43;10.00;73.50
70068;DHT22;57425;51.616;6.680;2023-04-25T07:58:09;9.90;73.40
70068;DHT22;57425;51.616;6.680;2023-04-25T08:00:35;9.90;73.40
70068;DHT22;57425;51.616;6.680;2023-04-25T08:03:01;9.90;73.40
70068;DHT22;57425;51.616;6.680;2023-04-25T08:05:28;9.90;73.50
70068;DHT22;57425;51.616;6.680;2023-04-25T08:07:53;9.90;73.50
70068;DHT22;57425;51.616;6.680;2023-04-25T08:10:19;9.90;73.30
70068;DHT22;57425;51.616;6.680;2023-04-25T08:12:45;9.90;73.10
70068;DHT22;57425;51.616;6.680;2023-04-25T08:15:11;9.90;73.10
70068;DHT22;57425;51.616;6.680;2023-04-25T08:17:39;9.90;73.20
70068;DHT22;57425;51.616;6.680;2023-04-25T08:20:05;9.90;73.20
70068;DHT22;57425;51.616;6.680;2023-04-25T08:22:31;10.00;73.10
70068;DHT22;57425;51.616;6.680;2023-04-25T08:24:57;10.00;72.90
70068;DHT22;57425;51.616;6.680;2023-04-25T08:27:22;10.00;72.70
70068;DHT22;57425;51.616;6.680;2023-04-25T08:29:49;10.00;72.70
70068;DHT22;57425;51.616;6.680;2023-04-25T08:32:15;10.00;72.80
70068;DHT22;57425;51.616;6.680;2023-04-25T08:34:41;10.00;72.70
70068;DHT22;57425;51.616;6.680;2023-04-25T08:37:08;10.00;72.40
70068;DHT22;57425;51.616;6.680;2023-04-25T08:39:36;10.10;71.70
70068;DHT22;57425;51.616;6.680;2023-04-25T08:42:02;10.10;71.80
70068;DHT22;57425;51.616;6.680;2023-04-25T08:44:33;10.10;72.20
70068;DHT22;57425;51.616;6.680;2023-04-25T08:46:59;10.10;72.90
70068;DHT22;57425;51.616;6.680;2023-04-25T08:49:25;10.30;72.30
70068;DHT22;57425;51.616;6.680;2023-04-25T08:51:52;10.30;72.00
70068;DHT22;57425;51.616;6.680;2023-04-25T08:54:20;10.20;72.00
70068;DHT22;57425;51.616;6.680;2023-04-25T08:56:49;10.20;71.50
70068;DHT22;57425;51.616;6.680;2023-04-25T08:59:15;10.20;71.60
70068;DHT22;57425;51.616;6.680;2023-04-25T09:01:40;10.30;72.10
70068;DHT22;57425;51.616;6.680;2023-04-25T09:04:06;10.20;71.60
70068;DHT22;57425;51.616;6.680;2023-04-25T09:06:32;10.20;71.80
70068;DHT22;57425;51.616;6.680;2023-04-25T09:09:07;10.20;71.60
70068;DHT22;57425;51.616;6.680;2023-04-25T09:11:34;10.30;71.60
70068;DHT22;57425;51.616;6.680;2023-04-25T09:14:15;10.20;71.70
70068;DHT22;57425;51.616;6.680;2023-04-25T09:19:33;10.30;71.60
70068;DHT22;57425;51.616;6.680;2023-04-25T09:22:03;10.30;71.70
70068;DHT22;57425;51.616;6.680;2023-04-25T09:24:45;10.30;71.80
70068;DHT22;57425;51.616;6.680;2023-04-25T09:27:19;10.30;71.80
70068;DHT22;57425;51.616;6.680;2023-04-25T09:29:44;10.40;71.40
70068;DHT22;57425;51.616;6.680;2023-04-25T09:32:22;10.40;71.30
70068;DHT22;57425;51.616;6.680;2023-04-25T09:34:53;10.40;71.00
70068;DHT22;57425;51.616;6.680;2023-04-25T09:37:27;10.40;71.50
70068;DHT22;57425;51.616;6.680;2023-04-25T09:39:55;10.40;71.50
70068;DHT22;57425;51.616;6.680;2023-04-25T09:42:25;10.40;71.50
70068;DHT22;57425;51.616;6.680;2023-04-25T09:44:53;10.40;71.30
70068;DHT22;57425;51.616;6.680;2023-04-25T09:47:19;10.50;71.50
70068;DHT22;57425;51.616;6.680;2023-04-25T09:49:47;10.50;71.20
70068;DHT22;57425;51.616;6.680;2023-04-25T09:52:17;10.50;70.90
70068;DHT22;57425;51.616;6.680;2023-04-25T09:54:47;10.50;70.60
70068;DHT22;57425;51.616;6.680;2023-04-25T09:57:18;10.50;70.70
70068;DHT22;57425;51.616;6.680;2023-04-25T09:59:49;10.50;70.20
70068;DHT22;57425;51.616;6.680;2023-04-25T10:02:17;10.80;70.40
70068;DHT22;57425;51.616;6.680;2023-04-25T10:04:47;10.50;70.00
70068;DHT22;57425;51.616;6.680;2023-04-25T10:07:13;10.60;69.80
70068;DHT22;57425;51.616;6.680;2023-04-25T10:09:40;10.60;70.00
70068;DHT22;57425;51.616;6.680;2023-04-25T10:12:07;10.60;69.90
70068;DHT22;57425;51.616;6.680;2023-04-25T10:14:33;10.60;70.00
70068;DHT22;57425;51.616;6.680;2023-04-25T10:17:00;10.60;70.50
70068;DHT22;57425;51.616;6.680;2023-04-25T10:19:27;10.60;70.90
70068;DHT22;57425;51.616;6.680;2023-04-25T10:22:14;10.80;71.10
70068;DHT22;57425;51.616;6.680;2023-04-25T10:24:42;10.60;70.70
70068;DHT22;57425;51.616;6.680;2023-04-25T10:27:09;10.60;71.10
70068;DHT22;57425;51.616;6.680;2023-04-25T10:29:35;10.60;71.40
70068;DHT22;57425;51.616;6.680;2023-04-25T10:32:01;10.60;71.60
70068;DHT22;57425;51.616;6.680;2023-04-25T10:34:47;10.60;71.90
70068;DHT22;57425;51.616;6.680;2023-04-25T10:37:14;10.80;72.20
70068;DHT22;57425;51.616;6.680;2023-04-25T10:39:40;10.60;72.60
70068;DHT22;57425;51.616;6.680;2023-04-25T10:42:07;10.60;72.70
70068;DHT22;57425;51.616;6.680;2023-04-25T10:44:33;10.60;72.80
70068;DHT22;57425;51.616;6.680;2023-04-25T10:47:00;10.60;72.70
70068;DHT22;57425;51.616;6.680;2023-04-25T10:49:36;10.60;72.70
70068;DHT22;57425;51.616;6.680;2023-04-25T10:52:40;10.70;72.60
70068;DHT22;57425;51.616;6.680;2023-04-25T10:55:06;10.70;72.50
70068;DHT22;57425;51.616;6.680;2023-04-25T11:00:12;10.70;72.40
70068;DHT22;57425;51.616;6.680;2023-04-25T11:03:02;10.70;72.30
70068;DHT22;57425;51.616;6.680;2023-04-25T11:05:36;10.70;72.20
70068;DHT22;57425;51.616;6.680;2023-04-25T11:08:03;10.80;71.80
70068;DHT22;57425;51.616;6.680;2023-04-25T11:10:33;10.70;71.60
70068;DHT22;57425;51.616;6.680;2023-04-25T11:13:01;10.70;71.20
70068;DHT22;57425;51.616;6.680;2023-04-25T11:15:27;10.70;71.00
70068;DHT22;57425;51.616;6.680;2023-04-25T11:17:54;10.70;71.00
70068;DHT22;57425;51.616;6.680;2023-04-25T11:20:20;10.80;71.30
70068;DHT22;57425;51.616;6.680;2023-04-25T11:22:47;10.80;71.30
70068;DHT22;57425;51.616;6.680;2023-04-25T11:25:15;11.00;71.40
70068;DHT22;57425;51.616;6.680;2023-04-25T11:27:59;10.80;71.60
70068;DHT22;57425;51.616;6.680;2023-04-25T11:30:27;10.80;70.60
70068;DHT22;57425;51.616;6.680;2023-04-25T11:32:54;10.80;71.40
70068;DHT22;57425;51.616;6.680;2023-04-25T11:35:20;10.80;71.40
70068;DHT22;57425;51.616;6.680;2023-04-25T11:37:48;10.80;71.60
70068;DHT22;57425;51.616;6.680;2023-04-25T11:40:15;10.80;71.70
70068;DHT22;57425;51.616;6.680;2023-04-25T11:42:45;10.80;71.80
70068;DHT22;57425;51.616;6.680;2023-04-25T11:45:11;10.90;71.90
70068;DHT22;57425;51.616;6.680;2023-04-25T11:47:37;10.90;72.00
70068;DHT22;57425;51.616;6.680;2023-04-25T11:50:04;10.90;72.20
70068;DHT22;57425;51.616;6.680;2023-04-25T11:52:40;10.90;72.00
70068;DHT22;57425;51.616;6.680;2023-04-25T11:55:13;11.00;71.80
70068;DHT22;57425;51.616;6.680;2023-04-25T11:57:39;10.90;71.70
70068;DHT22;57425;51.616;6.680;2023-04-25T12:00:16;10.90;72.10
70068;DHT22;57425;51.616;6.680;2023-04-25T12:02:44;10.90;72.20
70068;DHT22;57425;51.616;6.680;2023-04-25T12:05:11;11.10;72.00
70068;DHT22;57425;51.616;6.680;2023-04-25T12:07:37;11.00;72.10
70068;DHT22;57425;51.616;6.680;2023-04-25T12:10:07;11.00;72.20
70068;DHT22;57425;51.616;6.680;2023-04-25T12:12:34;11.00;71.40
70068;DHT22;57425;51.616;6.680;2023-04-25T12:17:42;11.10;70.50
70068;DHT22;57425;51.616;6.680;2023-04-25T12:20:26;11.20;70.90
70068;DHT22;57425;51.616;6.680;2023-04-25T12:22:52;11.10;70.50
70068;DHT22;57425;51.616;6.680;2023-04-25T12:25:44;11.10;71.10
70068;DHT22;57425;51.616;6.680;2023-04-25T12:28:18;11.10;70.90
70068;DHT22;57425;51.616;6.680;2023-04-25T12:33:17;11.20;71.90
70068;DHT22;57425;51.616;6.680;2023-04-25T12:35:43;11.10;72.10
70068;DHT22;57425;51.616;6.680;2023-04-25T12:38:09;11.20;72.40
70068;DHT22;57425;51.616;6.680;2023-04-25T12:40:34;11.10;72.60
70068;DHT22;57425;51.616;6.680;2023-04-25T12:43:00;11.10;72.90
70068;DHT22;57425;51.616;6.680;2023-04-25T12:45:25;11.10;73.30
70068;DHT22;57425;51.616;6.680;2023-04-25T12:47:51;11.20;73.50
70068;DHT22;57425;51.616;6.680;2023-04-25T12:50:17;11.10;73.50
70068;DHT22;57425;51.616;6.680;2023-04-25T12:52:42;11.10;73.60
70068;DHT22;57425;51.616;6.680;2023-04-25T12:55:08;11.20;73.70
70068;DHT22;57425;51.616;6.680;2023-04-25T12:57:33;11.10;73.60
70068;DHT22;57425;51.616;6.680;2023-04-25T12:59:59;11.20;73.70
70068;DHT22;57425;51.616;6.680;2023-04-25T13:02:25;11.20;73.80
70068;DHT22;57425;51.616;6.680;2023-04-25T13:04:51;11.20;73.70
70068;DHT22;57425;51.616;6.680;2023-04-25T13:07:17;11.20;73.20
70068;DHT22;57425;51.616;6.680;2023-04-25T13:09:42;11.20;73.20
70068;DHT22;57425;51.616;6.680;2023-04-25T13:12:08;11.20;73.10
70068;DHT22;57425;51.616;6.680;2023-04-25T13:14:34;11.20;72.70
70068;DHT22;57425;51.616;6.680;2023-04-25T13:16:59;11.30;72.20
70068;DHT22;57425;51.616;6.680;2023-04-25T13:19:25;11.20;71.90
70068;DHT22;57425;51.616;6.680;2023-04-25T13:21:51;11.30;71.30
70068;DHT22;57425;51.616;6.680;2023-04-25T13:24:17;11.30;71.10
70068;DHT22;57425;51.616;6.680;2023-04-25T13:26:43;11.30;71.10
70068;DHT22;57425;51.616;6.680;2023-04-25T13:29:09;11.30;70.70
70068;DHT22;57425;51.616;6.680;2023-04-25T13:31:34;11.30;70.30
70068;DHT22;57425;51.616;6.680;2023-04-25T13:34:00;11.50;70.40
70068;DHT22;57425;51.616;6.680;2023-04-25T13:36:26;11.30;69.90
70068;DHT22;57425;51.616;6.680;2023-04-25T13:38:51;11.30;69.70
70068;DHT22;57425;51.616;6.680;2023-04-25T13:41:17;11.40;69.30
70068;DHT22;57425;51.616;6.680;2023-04-25T13:43:45;11.50;69.30
70068;DHT22;57425;51.616;6.680;2023-04-25T13:46:12;11.40;68.60
70068;DHT22;57425;51.616;6.680;2023-04-25T13:48:38;11.40;69.00
70068;DHT22;57425;51.616;6.680;2023-04-25T13:51:04;11.40;69.20
70068;DHT22;57425;51.616;6.680;2023-04-25T13:53:30;11.40;68.90
70068;DHT22;57425;51.616;6.680;2023-04-25T13:55:55;11.40;68.20
70068;DHT22;57425;51.616;6.680;2023-04-25T13:58:21;11.40;67.60
70068;DHT22;57425;51.616;6.680;2023-04-25T14:00:47;11.40;68.30
70068;DHT22;57425;51.616;6.680;2023-04-25T14:03:13;11.40;67.50
70068;DHT22;57425;51.616;6.680;2023-04-25T14:05:39;11.50;66.80
70068;DHT22;57425;51.616;6.680;2023-04-25T14:08:07;11.40;67.00
70068;DHT22;57425;51.616;6.680;2023-04-25T14:10:33;11.50;67.20
70068;DHT22;57425;51.616;6.680;2023-04-25T14:12:59;11.50;66.90
70068;DHT22;57425;51.616;6.680;2023-04-25T14:15:26;11.50;67.20
70068;DHT22;57425;51.616;6.680;2023-04-25T14:17:51;11.50;67.50
70068;DHT22;57425;51.616;6.680;2023-04-25T14:20:17;11.50;67.50
70068;DHT22;57425;51.616;6.680;2023-04-25T14:22:45;11.50;67.30
70068;DHT22;57425;51.616;6.680;2023-04-25T14:25:11;11.50;67.40
70068;DHT22;57425;51.616;6.680;2023-04-25T14:27:37;11.50;67.50
70068;DHT22;57425;51.616;6.680;2023-04-25T14:30:03;11.60;67.80
70068;DHT22;57425;51.616;6.680;2023-04-25T14:32:30;11.50;68.00
70068;DHT22;57425;51.616;6.680;2023-04-25T14:34:57;11.60;68.10
70068;DHT22;57425;51.616;6.680;2023-04-25T14:37:23;11.60;68.30
70068;DHT22;57425;51.616;6.680;2023-04-25T14:39:48;11.60;68.20
70068;DHT22;57425;51.616;6.680;2023-04-25T14:42:14;11.70;68.50
70068;DHT22;57425;51.616;6.680;2023-04-25T14:44:41;11.60;68.60
70068;DHT22;57425;51.616;6.680;2023-04-25T14:47:06;11.60;68.60
70068;DHT22;57425;51.616;6.680;2023-04-25T14:49:32;11.60;68.30
70068;DHT22;57425;51.616;6.680;2023-04-25T14:51:59;11.60;68.10
70068;DHT22;57425;51.616;6.680;2023-04-25T14:54:25;11.70;68.10
70068;DHT22;57425;51.616;6.680;2023-04-25T14:56:51;11.60;67.60
70068;DHT22;57425;51.616;6.680;2023-04-25T14:59:16;11.60;67.10
70068;DHT22;57425;51.616;6.680;2023-04-25T15:01:43;11.70;67.10
70068;DHT22;57425;51.616;6.680;2023-04-25T15:04:09;11.70;66.30
70068;DHT22;57425;51.616;6.680;2023-04-25T15:06:36;11.70;66.50
70068;DHT22;57425;51.616;6.680;2023-04-25T15:09:01;11.70;66.70
70068;DHT22;57425;51.616;6.680;2023-04-25T15:11:27;11.70;66.40
70068;DHT22;57425;51.616;6.680;2023-04-25T15:13:54;11.70;66.50
70068;DHT22;57425;51.616;6.680;2023-04-25T15:16:20;11.70;66.50
70068;DHT22;57425;51.616;6.680;2023-04-25T15:18:46;11.70;66.20
70068;DHT22;57425;51.616;6.680;2023-04-25T15:21:12;11.80;66.10
70068;DHT22;57425;51.616;6.680;2023-04-25T15:23:38;11.80;66.20
70068;DHT22;57425;51.616;6.680;2023-04-25T15:26:03;11.80;65.80
70068;DHT22;57425;51.616;6.680;2023-04-25T15:28:29;11.70;65.80
70068;DHT22;57425;51.616;6.680;2023-04-25T15:30:56;11.80;65.70
70068;DHT22;57425;51.616;6.680;2023-04-25T15:33:22;11.70;64.90
70068;DHT22;57425;51.616;6.680;2023-04-25T15:35:48;11.80;64.50
70068;DHT22;57425;51.616;6.680;2023-04-25T15:38:14;11.80;64.10
70068;DHT22;57425;51.616;6.680;2023-04-25T15:40:40;11.80;64.70
70068;DHT22;57425;51.616;6.680;2023-04-25T15:43:06;11.80;64.80
70068;DHT22;57425;51.616;6.680;2023-04-25T15:45:33;11.80;65.40
70068;DHT22;57425;51.616;6.680;2023-04-25T15:48:00;11.80;65.20
70068;DHT22;57425;51.616;6.680;2023-04-25T15:50:26;11.80;65.60
70068;DHT22;57425;51.616;6.680;2023-04-25T15:52:52;11.90;64.70
70068;DHT22;57425;51.616;6.680;2023-04-25T15:55:18;11.90;65.00
70068;DHT22;57425;51.616;6.680;2023-04-25T15:57:48;11.80;64.70
70068;DHT22;57425;51.616;6.680;2023-04-25T16:00:14;11.90;64.70
70068;DHT22;57425;51.616;6.680;2023-04-25T16:02:42;11.90;65.20
70068;DHT22;57425;51.616;6.680;2023-04-25T16:05:08;11.90;65.20
70068;DHT22;57425;51.616;6.680;2023-04-25T16:07:35;11.90;65.50
70068;DHT22;57425;51.616;6.680;2023-04-25T16:10:01;11.90;65.70
70068;DHT22;57425;51.616;6.680;2023-04-25T16:12:29;11.90;65.50
70068;DHT22;57425;51.616;6.680;2023-04-25T16:14:55;11.90;65.50
70068;DHT22;57425;51.616;6.680;2023-04-25T16:17:26;11.90;65.70
70068;DHT22;57425;51.616;6.680;2023-04-25T16:19:54;11.90;65.50
70068;DHT22;57425;51.616;6.680;2023-04-25T16:22:20;11.90;66.50
70068;DHT22;57425;51.616;6.680;2023-04-25T16:24:46;11.90;65.90
70068;DHT22;57425;51.616;6.680;2023-04-25T16:27:12;11.90;65.70
70068;DHT22;57425;51.616;6.680;2023-04-25T16:29:38;11.90;65.70
70068;DHT22;57425;51.616;6.680;2023-04-25T16:32:04;11.90;65.70
70068;DHT22;57425;51.616;6.680;2023-04-25T16:34:30;11.90;65.70
70068;DHT22;57425;51.616;6.680;2023-04-25T16:36:56;11.90;65.90
70068;DHT22;57425;51.616;6.680;2023-04-25T16:39:22;11.90;65.80
70068;DHT22;57425;51.616;6.680;2023-04-25T16:41:49;11.90;65.70
70068;DHT22;57425;51.616;6.680;2023-04-25T16:44:14;11.90;65.70
70068;DHT22;57425;51.616;6.680;2023-04-25T16:46:41;11.90;65.30
70068;DHT22;57425;51.616;6.680;2023-04-25T16:49:07;11.90;65.30
70068;DHT22;57425;51.616;6.680;2023-04-25T16:51:33;12.00;65.50
70068;DHT22;57425;51.616;6.680;2023-04-25T16:53:59;12.00;65.40
70068;DHT22;57425;51.616;6.680;2023-04-25T16:56:25;12.00;65.40
70068;DHT22;57425;51.616;6.680;2023-04-25T16:58:51;12.00;65.30
70068;DHT22;57425;51.616;6.680;2023-04-25T17:01:17;12.00;65.70